createdAt,value
2018-03-27T00:02:07.211Z,22.50
2018-03-27T00:04:35.000Z,20.70
2018-03-27T00:07:02.857Z,20.35
2018-03-27T00:09:30.666Z,21.00
2018-03-27T00:11:58.467Z,22.10
2018-03-27T00:14:26.340Z,20.45
2018-03-27T00:16:54.127Z,20.70
2018-03-27T00:19:22.683Z,19.70
2018-03-27T00:21:50.552Z,19.45
2018-03-27T00:24:18.341Z,20.77
2018-03-27T00:26:58.881Z,20.75
2018-03-27T00:29:38.341Z,22.75
2018-03-27T00:32:17.867Z,19.17
2018-03-27T00:34:57.384Z,23.38
2018-03-27T00:37:37.070Z,23.40
2018-03-27T00:40:16.620Z,23.10
2018-03-27T00:43:01.791Z,21.62
2018-03-27T00:45:29.592Z,24.10
2018-03-27T00:47:57.388Z,22.45
2018-03-27T00:50:26.014Z,24.00
2018-03-27T00:52:53.816Z,24.73
2018-03-27T00:55:21.603Z,24.02
2018-03-27T00:57:50.222Z,24.58
2018-03-27T01:00:18.019Z,27.52
2018-03-27T01:02:45.824Z,26.17
2018-03-27T01:05:13.676Z,21.87
2018-03-27T01:07:41.482Z,26.42
2018-03-27T01:10:09.272Z,24.70
2018-03-27T01:12:37.137Z,25.35
2018-03-27T01:15:04.941Z,23.67
2018-03-27T01:17:32.746Z,26.30
2018-03-27T01:20:00.620Z,25.40
2018-03-27T01:22:28.424Z,24.92
2018-03-27T01:24:56.216Z,24.77
2018-03-27T01:27:24.069Z,24.60
2018-03-27T01:29:51.861Z,24.87
2018-03-27T01:32:19.652Z,25.15
2018-03-27T01:34:48.280Z,24.27
2018-03-27T01:37:16.073Z,24.40
2018-03-27T01:39:43.812Z,22.52
2018-03-27T01:42:11.626Z,27.40
2018-03-27T01:44:40.166Z,25.62
2018-03-27T01:47:07.905Z,25.30
2018-03-27T01:49:35.707Z,26.12
2018-03-27T01:52:03.457Z,27.20
2018-03-27T01:54:31.201Z,22.95
2018-03-27T01:56:59.004Z,22.10
2018-03-27T01:59:26.798Z,24.80
2018-03-27T02:01:54.554Z,25.40
2018-03-27T02:04:22.349Z,29.02
2018-03-27T02:06:50.103Z,29.17
2018-03-27T02:09:17.855Z,25.95
2018-03-27T02:11:51.313Z,24.40
2018-03-27T02:14:25.353Z,25.62
2018-03-27T02:16:58.683Z,23.05
2018-03-27T02:19:31.962Z,25.30
2018-03-27T02:21:59.261Z,22.40
2018-03-27T02:24:27.769Z,23.70
2018-03-27T02:26:55.517Z,21.33
2018-03-27T02:29:23.317Z,23.40
2018-03-27T02:31:51.056Z,21.85
2018-03-27T02:34:18.803Z,21.92
2018-03-27T02:36:46.650Z,24.23
2018-03-27T02:39:14.403Z,23.48
2018-03-27T02:41:42.922Z,22.33
2018-03-27T02:44:10.731Z,21.98
2018-03-27T02:46:38.476Z,20.08
2018-03-27T02:49:06.225Z,23.98
2018-03-27T02:51:34.029Z,22.58
2018-03-27T02:54:01.798Z,23.60
2018-03-27T02:56:30.311Z,21.55
2018-03-27T02:58:58.133Z,23.62
2018-03-27T03:01:26.643Z,19.10
2018-03-27T03:03:54.399Z,21.90
2018-03-27T03:06:22.199Z,19.50
2018-03-27T03:08:49.954Z,23.62
2018-03-27T03:11:17.706Z,21.73
2018-03-27T03:13:45.501Z,22.87
2018-03-27T03:16:13.242Z,21.27
2018-03-27T03:18:41.000Z,20.40
2018-03-27T03:21:08.841Z,19.05
2018-03-27T03:23:36.586Z,19.08
2018-03-27T03:26:05.094Z,19.90
2018-03-27T03:28:32.880Z,19.35
2018-03-27T03:31:00.625Z,20.25
2018-03-27T03:33:28.375Z,19.75
2018-03-27T03:35:56.183Z,19.60
2018-03-27T03:38:23.933Z,18.85
2018-03-27T03:40:51.672Z,16.75
2018-03-27T03:43:19.481Z,19.95
2018-03-27T03:45:48.001Z,18.52
2018-03-27T03:48:15.747Z,18.48
2018-03-27T03:50:43.560Z,18.92
2018-03-27T03:53:11.308Z,17.15
2018-03-27T03:55:39.053Z,19.27
2018-03-27T03:58:07.025Z,19.35
2018-03-27T04:00:34.774Z,18.67
2018-03-27T04:03:02.575Z,19.58
2018-03-27T04:05:30.474Z,18.45
2018-03-27T04:07:59.001Z,19.25
2018-03-27T04:10:26.748Z,20.30
2018-03-27T04:12:54.545Z,19.48
2018-03-27T04:15:22.288Z,20.95
2018-03-27T04:17:50.050Z,22.48
2018-03-27T04:20:18.627Z,18.15
2018-03-27T04:22:46.384Z,18.50
2018-03-27T04:25:14.173Z,19.90
2018-03-27T04:27:41.979Z,17.73
2018-03-27T04:30:09.717Z,18.58
2018-03-27T04:32:37.489Z,18.80
2018-03-27T04:35:06.056Z,20.62
2018-03-27T04:37:33.800Z,18.27
2018-03-27T04:40:01.555Z,21.30
2018-03-27T04:42:29.353Z,19.58
2018-03-27T04:44:57.861Z,19.75
2018-03-27T04:47:25.608Z,21.15
2018-03-27T04:49:53.435Z,19.37
2018-03-27T04:52:21.185Z,21.02
2018-03-27T04:54:48.920Z,19.65
2018-03-27T04:57:16.721Z,18.80
2018-03-27T04:59:44.461Z,22.20
2018-03-27T05:02:12.207Z,21.77
2018-03-27T05:04:40.009Z,21.27
2018-03-27T05:07:07.758Z,21.50
2018-03-27T05:09:35.510Z,22.55
2018-03-27T05:12:03.329Z,20.58
2018-03-27T05:14:31.110Z,23.17
2018-03-27T05:16:58.846Z,22.73
2018-03-27T05:19:27.412Z,24.10
2018-03-27T05:21:55.152Z,19.83
2018-03-27T05:24:22.892Z,20.90
2018-03-27T05:26:50.774Z,22.15
2018-03-27T05:29:18.513Z,19.05
2018-03-27T05:31:46.258Z,18.27
2018-03-27T05:34:14.066Z,16.37
2018-03-27T05:36:41.805Z,16.60
2018-03-27T05:39:09.562Z,14.10
2018-03-27T05:41:37.361Z,16.10
2018-03-27T05:44:05.129Z,14.30
2018-03-27T05:46:33.555Z,14.07
2018-03-27T05:49:01.363Z,13.85
2018-03-27T05:51:29.116Z,14.77
2018-03-27T05:53:56.857Z,12.90
2018-03-27T05:56:24.659Z,13.30
2018-03-27T05:58:52.406Z,15.98
2018-03-27T06:01:20.154Z,15.27
2018-03-27T06:03:47.957Z,14.77
2018-03-27T06:06:15.718Z,13.38
2018-03-27T06:08:44.231Z,15.48
2018-03-27T06:11:12.027Z,13.38
2018-03-27T06:13:39.825Z,11.50
2018-03-27T06:16:08.498Z,11.20
2018-03-27T06:18:37.067Z,10.85
2018-03-27T06:21:04.892Z,10.40
2018-03-27T06:23:32.637Z,14.05
2018-03-27T06:26:00.442Z,11.55
2018-03-27T06:28:28.192Z,10.25
2018-03-27T06:30:56.696Z,13.30
2018-03-27T06:33:24.499Z,14.38
2018-03-27T06:35:52.257Z,11.52
2018-03-27T06:38:20.002Z,10.75
2018-03-27T06:40:48.592Z,9.93
2018-03-27T06:43:16.350Z,10.65
2018-03-27T06:45:44.865Z,12.25
2018-03-27T06:48:12.673Z,10.65
2018-03-27T06:50:40.419Z,10.57
2018-03-27T06:53:08.172Z,10.13
2018-03-27T06:55:35.962Z,9.10
2018-03-27T06:58:04.478Z,9.13
2018-03-27T07:00:32.231Z,8.70
2018-03-27T07:03:00.049Z,8.73
2018-03-27T07:05:27.809Z,8.75
2018-03-27T07:07:55.561Z,7.80
2018-03-27T07:10:23.357Z,7.68
2018-03-27T07:12:51.883Z,15.05
2018-03-27T07:15:19.627Z,8.27
2018-03-27T07:17:47.426Z,8.30
2018-03-27T07:20:15.181Z,8.00
2018-03-27T07:22:42.918Z,8.55
2018-03-27T07:25:10.724Z,7.68
2018-03-27T07:27:38.491Z,9.18
2018-03-27T07:30:06.233Z,9.00
2018-03-27T07:32:34.038Z,9.70
2018-03-27T07:35:02.542Z,8.80
2018-03-27T07:37:30.287Z,8.15
2018-03-27T07:39:58.081Z,9.52
2018-03-27T07:42:25.822Z,8.35
2018-03-27T07:44:53.570Z,8.90
2018-03-27T07:47:21.388Z,10.18
2018-03-27T07:49:49.161Z,10.30
2018-03-27T07:52:16.907Z,10.52
2018-03-27T07:54:44.748Z,9.52
2018-03-27T07:57:12.497Z,8.70
2018-03-27T07:59:40.259Z,8.85
2018-03-27T08:02:08.044Z,8.40
2018-03-27T08:04:35.797Z,10.18
2018-03-27T08:07:03.554Z,8.23
2018-03-27T08:09:31.352Z,7.87
2018-03-27T08:11:59.092Z,11.00
2018-03-27T08:14:26.849Z,9.02
2018-03-27T08:16:54.641Z,9.45
2018-03-27T08:19:22.383Z,9.18
2018-03-27T08:21:50.142Z,8.52
2018-03-27T08:24:18.021Z,8.00
2018-03-27T08:26:45.746Z,7.20
2018-03-27T08:29:13.480Z,5.43
2018-03-27T08:31:42.036Z,5.57
2018-03-27T08:34:09.774Z,6.90
2018-03-27T08:36:37.529Z,6.53
2018-03-27T08:39:05.403Z,5.72
2018-03-27T08:41:33.142Z,5.00
2018-03-27T08:44:00.885Z,6.00
2018-03-27T08:46:28.703Z,5.75
2018-03-27T08:48:56.501Z,5.50
2018-03-27T08:51:25.010Z,4.30
2018-03-27T08:53:52.804Z,5.12
2018-03-27T08:56:20.544Z,6.18
2018-03-27T08:58:48.281Z,5.18
2018-03-27T09:01:16.073Z,5.43
2018-03-27T09:03:43.832Z,6.50
2018-03-27T09:06:11.580Z,6.20
2018-03-27T09:08:39.386Z,6.25
2018-03-27T09:11:07.137Z,4.65
2018-03-27T09:13:34.875Z,5.97
2018-03-27T09:16:02.726Z,5.28
2018-03-27T09:18:30.469Z,5.45
2018-03-27T09:20:58.210Z,6.35
2018-03-27T09:23:26.106Z,7.20
2018-03-27T09:25:53.905Z,6.10
2018-03-27T09:28:22.410Z,5.90
2018-03-27T09:30:51.792Z,7.25
2018-03-27T09:33:19.553Z,7.18
2018-03-27T09:35:47.305Z,8.35
2018-03-27T09:38:15.207Z,8.68
2018-03-27T09:40:43.708Z,8.15
2018-03-27T09:43:11.450Z,9.50
2018-03-27T09:45:40.008Z,9.35
2018-03-27T09:48:07.786Z,8.13
2018-03-27T09:50:36.322Z,7.70
2018-03-27T09:53:04.511Z,7.30
2018-03-27T09:55:32.275Z,5.78
2018-03-27T09:58:00.036Z,6.60
2018-03-27T10:00:33.505Z,7.00
2018-03-27T10:03:01.356Z,5.15
2018-03-27T10:05:29.121Z,5.45
2018-03-27T10:07:56.950Z,4.80
2018-03-27T10:10:25.454Z,6.55
2018-03-27T10:12:53.195Z,4.95
2018-03-27T10:15:21.783Z,4.95
2018-03-27T10:17:49.525Z,5.05
2018-03-27T10:20:18.031Z,5.22
2018-03-27T10:22:45.825Z,5.03
2018-03-27T10:25:13.577Z,5.45
2018-03-27T10:27:41.341Z,4.10
2018-03-27T10:30:09.172Z,7.10
2018-03-27T10:32:36.938Z,4.15
2018-03-27T10:35:04.713Z,4.25
2018-03-27T10:37:32.534Z,4.97
2018-03-27T10:40:00.289Z,4.32
2018-03-27T10:42:28.039Z,5.70
2018-03-27T10:44:55.836Z,6.45
2018-03-27T10:47:24.411Z,6.12
2018-03-27T10:49:53.215Z,4.78
2018-03-27T10:52:21.022Z,6.62
2018-03-27T10:54:48.775Z,5.62
2018-03-27T10:57:16.533Z,4.80
2018-03-27T10:59:44.334Z,5.85
2018-03-27T11:02:12.085Z,5.85
2018-03-27T11:04:39.834Z,5.40
2018-03-27T11:07:08.417Z,7.00
2018-03-27T11:09:36.175Z,5.50
2018-03-27T11:12:04.686Z,5.45
2018-03-27T11:14:33.245Z,4.28
2018-03-27T11:17:00.990Z,5.35
2018-03-27T11:19:28.730Z,6.00
2018-03-27T11:21:56.531Z,4.87
2018-03-27T11:24:24.277Z,4.55
2018-03-27T11:26:52.018Z,4.00
2018-03-27T11:29:19.840Z,5.57
2018-03-27T11:31:48.349Z,6.05
2018-03-27T11:34:16.098Z,4.82
2018-03-27T11:36:43.917Z,5.20
2018-03-27T11:39:11.658Z,4.95
2018-03-27T11:41:39.402Z,4.37
2018-03-27T11:44:07.210Z,4.53
2018-03-27T11:46:34.955Z,4.07
2018-03-27T11:49:02.708Z,3.90
2018-03-27T11:51:30.499Z,4.80
2018-03-27T11:53:58.245Z,4.43
2018-03-27T11:56:26.009Z,4.57
2018-03-27T11:58:53.796Z,4.22
2018-03-27T12:01:21.537Z,4.20
2018-03-27T12:03:49.299Z,4.32
2018-03-27T12:06:17.196Z,4.95
2018-03-27T12:08:45.692Z,4.62
2018-03-27T12:11:13.417Z,5.65
2018-03-27T12:13:41.208Z,4.50
2018-03-27T12:16:08.943Z,6.12
2018-03-27T12:18:36.678Z,4.62
2018-03-27T12:21:04.504Z,4.43
2018-03-27T12:23:32.252Z,7.22
2018-03-27T12:25:59.993Z,7.65
2018-03-27T12:28:27.785Z,7.90
2018-03-27T12:30:55.529Z,7.20
2018-03-27T12:33:24.029Z,6.60
2018-03-27T12:35:51.835Z,5.85
2018-03-27T12:38:20.346Z,6.47
2018-03-27T12:40:48.850Z,7.30
2018-03-27T12:43:16.641Z,7.47
2018-03-27T12:45:44.370Z,6.78
2018-03-27T12:48:12.104Z,6.78
2018-03-27T12:50:40.654Z,6.68
2018-03-27T12:53:08.384Z,5.20
2018-03-27T12:55:36.112Z,5.07
2018-03-27T12:58:04.705Z,4.37
2018-03-27T13:00:33.204Z,4.00
2018-03-27T13:03:00.937Z,4.65
2018-03-27T13:05:29.480Z,4.95
2018-03-27T13:07:57.221Z,4.35
2018-03-27T13:10:24.970Z,4.87
2018-03-27T13:12:52.755Z,4.55
2018-03-27T13:15:20.480Z,4.32
2018-03-27T13:17:48.217Z,4.37
2018-03-27T13:20:16.765Z,4.35
2018-03-27T13:22:44.496Z,4.00
2018-03-27T13:25:12.236Z,4.12
2018-03-27T13:27:40.026Z,5.55
2018-03-27T13:30:07.755Z,3.87
2018-03-27T13:32:35.517Z,4.50
2018-03-27T13:35:04.109Z,4.50
2018-03-27T13:37:31.885Z,4.37
2018-03-27T13:39:59.621Z,5.07
2018-03-27T13:42:28.178Z,5.10
2018-03-27T13:44:55.936Z,5.53
2018-03-27T13:47:23.671Z,5.45
2018-03-27T13:49:51.488Z,5.40
2018-03-27T13:52:19.271Z,5.03
2018-03-27T13:54:47.036Z,6.30
2018-03-27T13:57:14.816Z,5.65
2018-03-27T13:59:42.545Z,5.80
2018-03-27T14:02:10.334Z,5.97
2018-03-27T14:04:38.116Z,5.50
2018-03-27T14:07:05.873Z,5.50
2018-03-27T14:09:33.912Z,6.62
2018-03-27T14:12:01.908Z,5.45
2018-03-27T14:14:29.641Z,5.30
2018-03-27T14:16:57.381Z,6.60
2018-03-27T14:19:25.224Z,5.87
2018-03-27T14:21:52.995Z,6.50
2018-03-27T14:24:21.506Z,7.85
2018-03-27T14:26:49.305Z,5.62
2018-03-27T14:29:17.038Z,6.30
2018-03-27T14:31:44.798Z,7.95
2018-03-27T14:34:12.592Z,6.32
2018-03-27T14:36:40.346Z,6.50
2018-03-27T14:39:08.085Z,5.45
2018-03-27T14:41:35.888Z,7.47
2018-03-27T14:44:03.857Z,7.10
2018-03-27T14:46:31.599Z,7.95
2018-03-27T14:48:59.390Z,9.27
2018-03-27T14:51:27.131Z,7.90
2018-03-27T14:53:54.919Z,6.87
2018-03-27T14:56:23.513Z,8.63
2018-03-27T14:58:52.023Z,9.40
2018-03-27T15:01:19.777Z,8.85
2018-03-27T15:03:47.572Z,9.68
2018-03-27T15:06:15.328Z,7.80
2018-03-27T15:08:43.077Z,7.72
2018-03-27T15:11:10.876Z,8.60
2018-03-27T15:13:38.628Z,7.90
2018-03-27T15:16:06.383Z,9.38
2018-03-27T15:18:34.173Z,8.27
2018-03-27T15:21:02.678Z,9.63
2018-03-27T15:23:30.421Z,11.10
2018-03-27T15:25:59.017Z,18.77
2018-03-27T15:28:26.785Z,16.25
2018-03-27T15:30:54.542Z,15.13
2018-03-27T15:33:22.354Z,18.12
2018-03-27T15:35:50.110Z,16.55
2018-03-27T15:38:26.490Z,15.02
2018-03-27T15:40:54.950Z,13.55
2018-03-27T15:43:22.699Z,15.27
2018-03-27T15:45:50.507Z,16.08
2018-03-27T15:48:19.020Z,15.43
2018-03-27T15:50:46.769Z,16.20
2018-03-27T15:53:14.577Z,16.50
2018-03-27T15:55:42.329Z,15.00
2018-03-27T15:58:10.087Z,15.65
2018-03-27T16:00:37.890Z,14.87
2018-03-27T16:03:05.655Z,14.68
2018-03-27T16:05:33.406Z,14.95
2018-03-27T16:08:01.202Z,12.85
2018-03-27T16:10:28.954Z,15.57
2018-03-27T16:12:57.464Z,13.95
2018-03-27T16:15:25.277Z,14.23
2018-03-27T16:17:53.031Z,16.87
2018-03-27T16:20:20.781Z,13.68
2018-03-27T16:22:48.598Z,15.13
2018-03-27T16:25:16.341Z,15.57
2018-03-27T16:27:44.869Z,15.93
2018-03-27T16:30:12.670Z,15.20
2018-03-27T16:32:40.413Z,19.52
2018-03-27T16:35:08.157Z,16.00
2018-03-27T16:37:35.964Z,12.68
2018-03-27T16:40:04.500Z,14.35
2018-03-27T16:42:32.276Z,14.38
2018-03-27T16:45:00.083Z,21.12
2018-03-27T16:47:27.836Z,15.57
2018-03-27T16:49:56.349Z,16.98
2018-03-27T16:52:24.163Z,17.70
2018-03-27T16:54:53.055Z,20.35
2018-03-27T16:57:21.621Z,19.40
2018-03-27T16:59:49.426Z,17.37
2018-03-27T17:02:17.179Z,19.42
2018-03-27T17:04:44.942Z,16.85
2018-03-27T17:07:13.506Z,19.15
2018-03-27T17:09:42.063Z,20.52
2018-03-27T17:12:09.814Z,20.35
2018-03-27T17:14:37.624Z,18.98
2018-03-27T17:17:05.397Z,20.30
2018-03-27T17:19:33.182Z,19.92
2018-03-27T17:22:01.059Z,17.95
2018-03-27T17:24:28.843Z,19.20
2018-03-27T17:26:56.630Z,17.08
2018-03-27T17:29:25.246Z,17.70
2018-03-27T17:31:53.027Z,18.73
2018-03-27T17:34:20.789Z,18.83
2018-03-27T17:36:50.249Z,18.30
2018-03-27T17:39:18.045Z,22.27
2018-03-27T17:41:45.798Z,17.77
2018-03-27T17:44:13.692Z,18.92
2018-03-27T17:46:41.524Z,20.65
2018-03-27T17:49:09.406Z,20.12
2018-03-27T17:51:37.207Z,20.17
2018-03-27T17:54:04.990Z,19.15
2018-03-27T17:56:32.763Z,19.05
2018-03-27T17:59:00.579Z,17.45
2018-03-27T18:01:28.325Z,17.27
2018-03-27T18:03:56.073Z,17.65
2018-03-27T18:06:23.896Z,18.35
2018-03-27T18:08:52.429Z,18.02
2018-03-27T18:11:20.198Z,19.20
2018-03-27T18:13:48.015Z,21.37
2018-03-27T18:16:15.923Z,19.58
2018-03-27T18:18:43.697Z,19.08
2018-03-27T18:21:11.502Z,22.15
2018-03-27T18:23:39.253Z,21.33
2018-03-27T18:26:07.768Z,21.10
2018-03-27T18:28:35.569Z,17.75
2018-03-27T18:31:03.356Z,18.42
2018-03-27T18:33:31.877Z,22.20
2018-03-27T18:35:59.709Z,22.27
2018-03-27T18:38:27.464Z,21.75
2018-03-27T18:40:55.230Z,21.50
2018-03-27T18:43:23.039Z,22.58
2018-03-27T18:45:50.819Z,22.10
2018-03-27T18:48:18.588Z,21.12
2018-03-27T18:50:46.865Z,21.65
2018-03-27T18:53:15.393Z,21.45
2018-03-27T18:55:43.137Z,22.90
2018-03-27T18:58:10.979Z,23.27
2018-03-27T19:00:39.521Z,20.05
2018-03-27T19:03:07.274Z,20.00
2018-03-27T19:05:35.070Z,22.13
2018-03-27T19:08:02.817Z,18.62
2018-03-27T19:10:30.602Z,20.50
2018-03-27T19:12:59.174Z,19.85
2018-03-27T19:15:26.924Z,18.62
2018-03-27T19:17:54.676Z,20.15
2018-03-27T19:20:22.482Z,24.10
2018-03-27T19:22:50.251Z,19.52
2018-03-27T19:25:17.990Z,20.92
2018-03-27T19:27:46.678Z,22.05
2018-03-27T19:30:15.209Z,25.10
2018-03-27T19:32:42.971Z,24.10
2018-03-27T19:35:10.798Z,25.77
2018-03-27T19:37:38.543Z,24.98
2018-03-27T19:40:07.054Z,25.60
2018-03-27T19:42:34.879Z,24.77
2018-03-27T19:45:03.485Z,24.90
2018-03-27T19:47:31.268Z,29.20
2018-03-27T19:49:59.066Z,28.40
2018-03-27T19:52:26.834Z,29.92
2018-03-27T19:54:54.594Z,31.05
2018-03-27T19:57:22.390Z,35.65
2018-03-27T19:59:50.946Z,33.13
2018-03-27T20:02:19.595Z,30.60
2018-03-27T20:04:47.412Z,30.62
2018-03-27T20:07:15.939Z,35.28
2018-03-27T20:09:43.738Z,32.55
2018-03-27T20:12:12.321Z,35.30
2018-03-27T20:14:40.844Z,32.65
2018-03-27T20:17:08.613Z,35.13
2018-03-27T20:19:36.439Z,33.50
2018-03-27T20:22:04.957Z,31.73
2018-03-27T20:24:32.726Z,31.40
2018-03-27T20:27:00.528Z,31.95
2018-03-27T20:29:28.274Z,30.90
2018-03-27T20:31:56.029Z,27.92
2018-03-27T20:34:23.853Z,31.65
2018-03-27T20:36:51.632Z,33.45
2018-03-27T20:39:20.235Z,29.92
2018-03-27T20:41:48.051Z,28.27
2018-03-27T20:44:15.812Z,29.95
2018-03-27T20:46:43.825Z,29.45
2018-03-27T20:49:11.667Z,30.73
2018-03-27T20:51:39.465Z,32.47
2018-03-27T20:54:07.214Z,30.88
2018-03-27T20:56:35.568Z,34.08
2018-03-27T20:59:03.417Z,34.17
2018-03-27T21:01:33.211Z,34.55
2018-03-27T21:04:01.348Z,36.42
2018-03-27T21:06:29.098Z,34.58
2018-03-27T21:11:33.506Z,32.70
2018-03-27T21:14:01.303Z,38.72
2018-03-27T21:16:29.061Z,38.35
2018-03-27T21:18:56.894Z,39.88
2018-03-27T21:21:24.680Z,36.38
2018-03-27T21:23:52.455Z,38.88
2018-03-27T21:26:20.270Z,43.28
2018-03-27T21:28:48.025Z,39.33
2018-03-27T21:31:15.803Z,40.67
2018-03-27T21:33:43.654Z,40.80
2018-03-27T21:36:11.416Z,40.33
2018-03-27T21:38:39.181Z,40.17
2018-03-27T21:41:07.024Z,41.83
2018-03-27T21:43:34.791Z,37.95
2018-03-27T21:46:02.552Z,39.78
2018-03-27T21:48:30.365Z,41.83
2018-03-27T21:50:58.124Z,40.95
2018-03-27T21:53:25.896Z,45.50
2018-03-27T21:55:53.705Z,41.13
2018-03-27T21:58:21.506Z,40.42
2018-03-27T22:00:49.267Z,39.28
2018-03-27T22:03:17.145Z,46.53
2018-03-27T22:05:44.916Z,48.17
2018-03-27T22:08:13.477Z,37.95
2018-03-27T22:10:41.287Z,39.95
2018-03-27T22:13:09.046Z,41.10
2018-03-27T22:15:36.801Z,39.45
2018-03-27T22:18:05.402Z,42.25
2018-03-27T22:20:33.150Z,40.17
2018-03-27T22:23:00.936Z,43.17
2018-03-27T22:25:28.746Z,38.35
2018-03-27T22:27:57.295Z,39.08
2018-03-27T22:30:25.073Z,37.55
2018-03-27T22:32:52.901Z,41.95
2018-03-27T22:35:20.655Z,39.55
2018-03-27T22:37:48.403Z,40.90
2018-03-27T22:40:16.272Z,40.22
2018-03-27T22:42:44.032Z,40.03
2018-03-27T22:45:11.783Z,38.45
2018-03-27T22:47:40.363Z,39.10
2018-03-27T22:50:08.911Z,38.33
2018-03-27T22:52:36.674Z,37.92
2018-03-27T22:55:04.485Z,41.00
2018-03-27T22:57:32.262Z,37.83
2018-03-27T23:00:00.084Z,42.55
2018-03-27T23:02:28.670Z,41.75
2018-03-27T23:04:57.193Z,37.17
2018-03-27T23:07:24.957Z,39.47
2018-03-27T23:09:52.765Z,39.05
2018-03-27T23:12:21.346Z,41.95
2018-03-27T23:14:49.901Z,42.03
2018-03-27T23:17:17.709Z,41.13
2018-03-27T23:19:46.249Z,37.85
2018-03-27T23:35:40.229Z,38.10
2018-03-27T23:38:08.743Z,41.75
2018-03-27T23:40:36.510Z,35.97
2018-03-27T23:43:04.328Z,39.67
2018-03-27T23:45:32.880Z,41.90
2018-03-27T23:48:00.630Z,38.60
2018-03-27T23:50:28.429Z,44.65
2018-03-27T23:52:56.186Z,40.55
2018-03-27T23:55:23.997Z,43.50
2018-03-27T23:57:51.799Z,46.78
